createdAt,value
2017-11-08T00:00:37.727Z,17.92
2017-11-08T00:03:05.246Z,17.98
2017-11-08T00:05:32.765Z,19.23
2017-11-08T00:08:02.257Z,18.60
2017-11-08T00:10:29.784Z,19.20
2017-11-08T00:12:57.721Z,19.40
2017-11-08T00:15:25.249Z,18.55
2017-11-08T00:17:54.597Z,19.23
2017-11-08T00:20:22.124Z,18.52
2017-11-08T00:22:50.072Z,18.77
2017-11-08T00:25:17.621Z,18.83
2017-11-08T00:27:45.163Z,16.20
2017-11-08T00:30:12.698Z,15.85
2017-11-08T00:32:40.255Z,17.90
2017-11-08T00:35:07.808Z,15.95
2017-11-08T00:37:35.388Z,17.45
2017-11-08T00:40:02.938Z,19.58
2017-11-08T00:42:30.464Z,18.10
2017-11-08T00:44:58.436Z,18.23
2017-11-08T00:47:25.964Z,18.02
2017-11-08T00:49:53.509Z,18.37
2017-11-08T00:52:21.033Z,19.58
2017-11-08T00:54:48.581Z,18.10
2017-11-08T01:00:15.921Z,18.15
2017-11-08T01:02:43.524Z,17.35
2017-11-08T01:05:11.096Z,20.00
2017-11-08T01:07:38.662Z,18.67
2017-11-08T01:10:06.216Z,18.20
2017-11-08T01:12:33.764Z,16.85
2017-11-08T01:15:01.395Z,17.45
2017-11-08T01:17:28.961Z,17.45
2017-11-08T01:19:56.520Z,19.33
2017-11-08T01:22:24.100Z,18.45
2017-11-08T01:24:51.653Z,18.33
2017-11-08T01:27:19.223Z,18.65
2017-11-08T01:29:48.083Z,18.37
2017-11-08T01:32:15.689Z,20.37
2017-11-08T01:34:43.280Z,18.48
2017-11-08T01:40:10.194Z,19.77
2017-11-08T01:42:37.744Z,17.58
2017-11-08T01:45:08.093Z,19.10
2017-11-08T01:47:35.625Z,19.08
2017-11-08T01:50:03.163Z,19.70
2017-11-08T01:52:30.710Z,19.55
2017-11-08T01:54:58.233Z,18.55
2017-11-08T01:57:25.897Z,21.80
2017-11-08T01:59:54.056Z,19.92
2017-11-08T02:02:21.607Z,19.37
2017-11-08T02:04:49.540Z,20.35
2017-11-08T02:07:17.100Z,19.55
2017-11-08T02:09:44.670Z,19.25
2017-11-08T02:12:12.197Z,18.67
2017-11-08T02:14:40.135Z,20.15
2017-11-08T02:17:07.657Z,19.00
2017-11-08T02:19:35.192Z,19.02
2017-11-08T02:22:02.713Z,18.77
2017-11-08T02:24:30.281Z,20.10
2017-11-08T02:27:03.450Z,19.00
2017-11-08T02:29:31.016Z,17.55
2017-11-08T02:31:58.552Z,19.12
2017-11-08T02:34:26.090Z,20.00
2017-11-08T02:36:53.624Z,18.37
2017-11-08T02:39:21.155Z,20.27
2017-11-08T02:41:48.694Z,18.83
2017-11-08T02:44:16.206Z,18.25
2017-11-08T02:46:43.756Z,19.17
2017-11-08T02:49:11.290Z,18.90
2017-11-08T02:51:38.852Z,18.42
2017-11-08T02:54:09.241Z,19.08
2017-11-08T02:56:36.786Z,18.87
2017-11-08T02:59:04.716Z,20.80
2017-11-08T03:01:32.261Z,18.27
2017-11-08T03:04:02.708Z,18.23
2017-11-08T03:06:30.272Z,19.45
2017-11-08T03:08:57.832Z,19.73
2017-11-08T03:11:25.383Z,18.83
2017-11-08T03:13:52.908Z,18.45
2017-11-08T03:16:20.431Z,18.50
2017-11-08T03:18:48.364Z,17.77
2017-11-08T03:21:15.890Z,18.40
2017-11-08T03:23:43.430Z,18.77
2017-11-08T03:26:10.959Z,19.10
2017-11-08T03:28:38.517Z,19.40
2017-11-08T03:31:06.034Z,18.45
2017-11-08T03:33:33.567Z,18.23
2017-11-08T03:36:01.112Z,18.10
2017-11-08T03:38:29.034Z,18.37
2017-11-08T03:40:56.573Z,20.17
2017-11-08T03:43:24.516Z,19.87
2017-11-08T03:45:52.061Z,20.10
2017-11-08T03:48:19.593Z,21.70
2017-11-08T03:50:47.532Z,21.37
2017-11-08T03:53:15.066Z,20.40
2017-11-08T03:55:42.624Z,20.00
2017-11-08T03:58:10.155Z,19.87
2017-11-08T04:00:37.673Z,20.85
2017-11-08T04:03:05.217Z,17.95
2017-11-08T04:05:32.741Z,23.10
2017-11-08T04:08:00.282Z,20.58
2017-11-08T04:10:28.198Z,21.52
2017-11-08T04:12:55.734Z,22.35
2017-11-08T04:15:23.647Z,22.15
2017-11-08T04:17:51.208Z,21.62
2017-11-08T04:20:18.726Z,21.52
2017-11-08T04:22:46.267Z,22.80
2017-11-08T04:25:13.805Z,20.60
2017-11-08T04:27:41.330Z,20.90
2017-11-08T04:30:08.871Z,22.52
2017-11-08T04:32:36.392Z,21.65
2017-11-08T04:35:03.940Z,20.00
2017-11-08T04:37:31.463Z,20.85
2017-11-08T04:39:59.015Z,21.23
2017-11-08T04:42:26.928Z,20.10
2017-11-08T04:44:54.448Z,22.30
2017-11-08T04:47:21.986Z,22.05
2017-11-08T04:49:49.523Z,19.90
2017-11-08T04:52:17.061Z,21.48
2017-11-08T04:54:44.595Z,22.33
2017-11-08T04:57:12.133Z,20.88
2017-11-08T04:59:39.653Z,21.17
2017-11-08T05:02:08.029Z,20.70
2017-11-08T05:04:35.547Z,22.10
2017-11-08T05:07:03.087Z,21.62
2017-11-08T05:09:30.605Z,22.92
2017-11-08T05:11:58.596Z,20.30
2017-11-08T05:14:26.117Z,21.20
2017-11-08T05:16:53.641Z,22.55
2017-11-08T05:19:21.180Z,21.60
2017-11-08T05:21:48.714Z,21.48
2017-11-08T05:24:16.248Z,20.90
2017-11-08T05:26:44.168Z,21.60
2017-11-08T05:29:11.791Z,19.52
2017-11-08T05:31:39.314Z,22.27
2017-11-08T05:34:06.853Z,20.90
2017-11-08T05:36:34.381Z,21.70
2017-11-08T05:39:01.918Z,20.70
2017-11-08T05:41:29.448Z,21.60
2017-11-08T05:43:57.412Z,21.85
2017-11-08T05:46:24.943Z,21.02
2017-11-08T05:48:52.473Z,20.88
2017-11-08T05:51:20.412Z,21.75
2017-11-08T05:53:47.948Z,20.23
2017-11-08T05:56:15.486Z,19.85
2017-11-08T05:58:43.017Z,19.85
2017-11-08T06:01:10.549Z,21.60
2017-11-08T06:03:38.072Z,23.10
2017-11-08T06:06:05.602Z,22.98
2017-11-08T06:08:33.126Z,24.45
2017-11-08T06:11:00.666Z,22.90
2017-11-08T06:13:28.193Z,22.75
2017-11-08T06:15:56.143Z,23.30
2017-11-08T06:18:23.672Z,22.92
2017-11-08T06:20:51.192Z,24.10
2017-11-08T06:23:18.730Z,24.08
2017-11-08T06:25:46.247Z,25.15
2017-11-08T06:28:14.186Z,22.05
2017-11-08T06:30:41.704Z,25.48
2017-11-08T06:33:09.629Z,26.15
2017-11-08T06:35:37.151Z,27.73
2017-11-08T06:38:04.697Z,28.33
2017-11-08T06:40:32.233Z,28.48
2017-11-08T06:42:59.769Z,24.95
2017-11-08T06:45:27.689Z,26.67
2017-11-08T06:47:55.225Z,26.33
2017-11-08T06:50:22.744Z,27.40
2017-11-08T06:52:52.137Z,26.60
2017-11-08T06:55:19.653Z,28.08
2017-11-08T06:57:47.199Z,26.45
2017-11-08T07:00:14.719Z,27.15
2017-11-08T07:02:42.267Z,27.92
2017-11-08T07:05:09.788Z,28.20
2017-11-08T07:07:37.341Z,28.62
2017-11-08T07:10:05.267Z,26.58
2017-11-08T07:12:32.804Z,27.27
2017-11-08T07:15:00.718Z,29.02
2017-11-08T07:17:31.205Z,26.02
2017-11-08T07:19:58.732Z,26.23
2017-11-08T07:22:26.254Z,27.45
2017-11-08T07:24:53.799Z,28.42
2017-11-08T07:27:21.329Z,27.00
2017-11-08T07:29:49.007Z,30.30
2017-11-08T07:32:16.539Z,29.67
2017-11-08T07:34:44.473Z,27.75
2017-11-08T07:37:11.990Z,29.00
2017-11-08T07:39:39.543Z,26.37
2017-11-08T07:42:07.062Z,29.33
2017-11-08T07:44:34.597Z,29.20
2017-11-08T07:47:02.115Z,27.95
2017-11-08T07:49:29.643Z,31.92
2017-11-08T07:51:57.569Z,31.37
2017-11-08T07:54:25.125Z,29.27
2017-11-08T07:56:55.085Z,28.58
2017-11-08T07:59:25.432Z,34.80
2017-11-08T08:01:52.946Z,35.63
2017-11-08T08:04:20.878Z,32.47
2017-11-08T08:06:48.401Z,33.50
2017-11-08T08:09:15.948Z,31.17
2017-11-08T08:11:47.156Z,27.65
2017-11-08T08:14:14.698Z,29.77
2017-11-08T08:16:42.620Z,31.73
2017-11-08T08:19:10.159Z,31.37
2017-11-08T08:21:38.080Z,29.50
2017-11-08T08:24:05.620Z,30.45
2017-11-08T08:26:33.141Z,30.42
2017-11-08T08:29:00.689Z,30.83
2017-11-08T08:31:28.220Z,29.98
2017-11-08T08:33:56.146Z,28.62
2017-11-08T08:36:23.664Z,29.77
2017-11-08T08:38:51.279Z,29.00
2017-11-08T08:41:18.816Z,27.58
2017-11-08T08:43:46.383Z,29.63
2017-11-08T08:46:13.894Z,27.17
2017-11-08T08:48:41.418Z,29.80
2017-11-08T08:51:09.362Z,25.48
2017-11-08T08:53:36.894Z,27.10
2017-11-08T08:56:04.432Z,28.17
2017-11-08T08:58:31.972Z,26.50
2017-11-08T09:00:59.519Z,26.98
2017-11-08T09:03:27.044Z,24.85
2017-11-08T09:05:54.582Z,25.42
2017-11-08T09:08:22.111Z,25.80
2017-11-08T09:10:50.037Z,25.75
2017-11-08T09:13:17.560Z,24.40
2017-11-08T09:15:45.501Z,25.80
2017-11-08T09:18:13.025Z,26.90
2017-11-08T09:20:40.561Z,24.17
2017-11-08T09:23:08.094Z,27.90
2017-11-08T09:25:35.636Z,25.95
2017-11-08T09:28:03.551Z,27.33
2017-11-08T09:30:31.206Z,28.42
2017-11-08T09:32:58.748Z,28.98
2017-11-08T09:35:26.698Z,27.37
2017-11-08T09:37:59.815Z,28.95
2017-11-08T09:43:21.830Z,24.45
2017-11-08T09:45:49.457Z,23.85
2017-11-08T09:48:17.034Z,26.23
2017-11-08T09:50:44.631Z,28.48
2017-11-08T09:53:12.301Z,27.10
2017-11-08T09:55:39.888Z,27.55
2017-11-08T09:58:09.255Z,26.35
2017-11-08T10:00:36.916Z,27.20
2017-11-08T10:03:04.485Z,26.12
2017-11-08T10:05:32.036Z,23.85
2017-11-08T10:07:59.606Z,28.12
2017-11-08T10:10:30.134Z,26.37
2017-11-08T10:13:03.321Z,24.80
2017-11-08T10:15:31.294Z,25.15
2017-11-08T10:17:58.868Z,26.62
2017-11-08T10:20:26.861Z,24.37
2017-11-08T10:23:01.155Z,25.23
2017-11-08T10:25:28.800Z,25.80
2017-11-08T10:27:56.414Z,25.90
2017-11-08T10:30:23.981Z,24.52
2017-11-08T10:32:51.576Z,25.52
2017-11-08T10:35:19.171Z,25.40
2017-11-08T10:37:46.765Z,24.77
2017-11-08T10:40:14.337Z,25.10
2017-11-08T10:42:41.909Z,24.98
2017-11-08T10:45:09.566Z,23.65
2017-11-08T10:47:37.153Z,25.73
2017-11-08T10:50:04.696Z,26.70
2017-11-08T10:52:32.392Z,24.35
2017-11-08T10:54:59.963Z,26.50
2017-11-08T10:57:27.688Z,25.75
2017-11-08T11:00:10.961Z,25.58
2017-11-08T11:02:39.252Z,28.10
2017-11-08T11:05:06.767Z,25.98
2017-11-08T11:07:34.298Z,27.23
2017-11-08T11:10:01.921Z,26.25
2017-11-08T11:12:29.914Z,27.83
2017-11-08T11:14:57.513Z,26.37
2017-11-08T11:17:25.098Z,26.10
2017-11-08T11:19:54.629Z,28.65
2017-11-08T11:22:22.211Z,26.50
2017-11-08T11:24:49.808Z,26.45
2017-11-08T11:27:17.409Z,27.05
2017-11-08T11:29:45.029Z,24.98
2017-11-08T11:32:12.650Z,28.25
2017-11-08T11:34:40.248Z,26.42
2017-11-08T11:37:07.851Z,24.90
2017-11-08T11:39:35.437Z,27.73
2017-11-08T11:42:03.071Z,28.77
2017-11-08T11:44:30.813Z,27.62
2017-11-08T11:46:58.397Z,26.58
2017-11-08T11:49:26.379Z,26.77
2017-11-08T11:51:53.977Z,25.27
2017-11-08T11:54:21.524Z,27.60
2017-11-08T11:56:49.111Z,27.60
2017-11-08T11:59:16.681Z,25.92
2017-11-08T12:01:44.291Z,27.33
2017-11-08T12:04:11.863Z,23.77
2017-11-08T12:06:39.480Z,26.08
2017-11-08T12:09:07.041Z,27.60
2017-11-08T12:11:35.401Z,26.08
2017-11-08T12:14:03.023Z,26.90
2017-11-08T12:16:30.592Z,27.52
2017-11-08T12:18:58.179Z,28.75
2017-11-08T12:21:26.220Z,26.27
2017-11-08T12:23:53.782Z,28.70
2017-11-08T12:26:21.345Z,27.37
2017-11-08T12:28:48.939Z,29.02
2017-11-08T12:31:16.646Z,29.15
2017-11-08T12:33:44.676Z,28.12
2017-11-08T12:36:12.260Z,31.12
2017-11-08T12:38:39.845Z,28.85
2017-11-08T12:41:07.459Z,29.73
2017-11-08T12:43:35.152Z,33.42
2017-11-08T12:46:02.736Z,29.90
2017-11-08T12:48:30.346Z,31.27
2017-11-08T12:50:58.027Z,31.52
2017-11-08T12:53:25.648Z,31.00
2017-11-08T12:55:53.233Z,32.65
2017-11-08T12:58:20.845Z,32.70
2017-11-08T13:00:48.432Z,33.05
2017-11-08T13:03:15.999Z,33.63
2017-11-08T13:05:43.580Z,31.75
2017-11-08T13:08:11.192Z,34.08
2017-11-08T13:10:44.664Z,36.28
2017-11-08T13:13:12.254Z,33.45
2017-11-08T13:15:42.201Z,36.53
2017-11-08T13:18:09.794Z,34.50
2017-11-08T13:20:37.351Z,33.95
2017-11-08T13:23:05.027Z,37.20
2017-11-08T13:25:32.657Z,36.00
2017-11-08T13:28:00.255Z,36.08
2017-11-08T13:30:27.809Z,36.65
2017-11-08T13:32:55.443Z,35.65
2017-11-08T13:35:23.025Z,36.22
2017-11-08T13:37:50.668Z,36.05
2017-11-08T13:40:18.257Z,35.45
2017-11-08T13:42:45.836Z,35.17
2017-11-08T13:45:13.414Z,39.08
2017-11-08T13:47:41.022Z,36.45
2017-11-08T13:50:08.605Z,35.60
2017-11-08T13:52:36.180Z,36.58
2017-11-08T13:55:03.769Z,35.17
2017-11-08T13:57:31.321Z,36.15
2017-11-08T13:59:58.888Z,39.38
2017-11-08T14:02:26.516Z,36.78
2017-11-08T14:04:54.188Z,36.72
2017-11-08T14:07:21.739Z,35.38
2017-11-08T14:09:49.312Z,40.35
2017-11-08T14:12:16.866Z,52.40
2017-11-08T14:14:44.931Z,47.10
2017-11-08T14:17:12.523Z,43.53
2017-11-08T14:19:40.521Z,52.20
2017-11-08T14:22:08.096Z,44.45
2017-11-08T14:24:35.741Z,41.55
2017-11-08T14:27:03.732Z,40.20
2017-11-08T14:29:33.520Z,42.17
2017-11-08T14:32:01.076Z,37.80
2017-11-08T14:34:28.664Z,38.13
2017-11-08T14:36:56.276Z,37.55
2017-11-08T14:39:24.236Z,36.95
2017-11-08T14:41:52.244Z,34.25
2017-11-08T14:44:19.828Z,38.10
2017-11-08T14:46:47.395Z,37.33
2017-11-08T14:49:15.015Z,35.72
2017-11-08T14:51:42.579Z,37.75
2017-11-08T14:54:10.181Z,36.92
2017-11-08T14:56:37.776Z,37.03
2017-11-08T14:59:05.765Z,35.97
2017-11-08T15:01:33.727Z,36.63
2017-11-08T15:04:01.353Z,37.38
2017-11-08T15:06:28.946Z,35.70
2017-11-08T15:08:56.533Z,37.55
2017-11-08T15:11:24.153Z,37.53
2017-11-08T15:13:51.719Z,37.30
2017-11-08T15:16:19.307Z,35.75
2017-11-08T15:18:46.908Z,36.70
2017-11-08T15:21:14.513Z,37.20
2017-11-08T15:23:42.152Z,37.45
2017-11-08T15:26:09.754Z,34.25
2017-11-08T15:28:37.340Z,35.55
2017-11-08T15:31:05.861Z,37.13
2017-11-08T15:33:35.364Z,37.20
2017-11-08T15:36:02.977Z,39.95
2017-11-08T15:38:30.563Z,39.10
2017-11-08T15:40:58.135Z,37.28
2017-11-08T15:43:26.496Z,38.63
2017-11-08T15:45:54.089Z,37.90
2017-11-08T15:48:21.669Z,38.72
2017-11-08T15:50:49.287Z,39.85
2017-11-08T15:53:16.858Z,37.30
2017-11-08T15:55:44.570Z,35.90
2017-11-08T15:58:12.168Z,36.40
2017-11-08T16:00:39.748Z,36.53
2017-11-08T16:03:12.113Z,36.60
2017-11-08T16:05:39.743Z,36.65
2017-11-08T16:08:07.680Z,36.45
2017-11-08T16:10:35.253Z,34.30
2017-11-08T16:13:05.649Z,35.38
2017-11-08T16:15:34.222Z,37.38
2017-11-08T16:18:01.794Z,44.10
2017-11-08T16:20:29.786Z,40.12
2017-11-08T16:22:57.909Z,37.03
2017-11-08T16:25:25.537Z,36.05
2017-11-08T16:27:53.155Z,37.83
2017-11-08T16:30:20.833Z,38.85
2017-11-08T16:32:48.400Z,39.60
2017-11-08T16:35:15.965Z,42.08
2017-11-08T16:37:43.556Z,39.75
2017-11-08T16:40:11.123Z,41.40
2017-11-08T16:42:38.730Z,38.65
2017-11-08T16:45:06.346Z,38.47
2017-11-08T16:47:33.939Z,37.70
2017-11-08T16:50:01.530Z,38.88
2017-11-08T16:52:29.172Z,38.92
2017-11-08T16:54:56.727Z,39.53
2017-11-08T16:57:24.328Z,38.75
2017-11-08T16:59:51.911Z,38.15
2017-11-08T17:02:19.512Z,38.10
2017-11-08T17:04:47.065Z,38.80
2017-11-08T17:07:14.718Z,39.30
2017-11-08T17:09:42.284Z,39.45
2017-11-08T17:12:09.892Z,40.03
2017-11-08T17:14:37.565Z,39.72
2017-11-08T17:17:05.133Z,41.33
2017-11-08T17:19:32.727Z,44.97
2017-11-08T17:22:02.333Z,42.92
2017-11-08T17:24:29.888Z,40.70
2017-11-08T17:26:57.494Z,41.80
2017-11-08T17:29:25.083Z,42.30
2017-11-08T17:31:53.102Z,44.75
2017-11-08T17:34:20.673Z,44.40
2017-11-08T17:36:48.252Z,46.40
2017-11-08T17:39:15.796Z,50.90
2017-11-08T17:41:43.804Z,49.08
2017-11-08T17:44:11.382Z,48.80
2017-11-08T17:46:38.982Z,47.62
2017-11-08T17:49:06.561Z,49.03
2017-11-08T17:51:34.150Z,45.60
2017-11-08T17:54:02.191Z,49.22
2017-11-08T17:56:29.749Z,47.13
2017-11-08T17:58:57.367Z,49.55
2017-11-08T18:01:24.932Z,48.70
2017-11-08T18:03:52.513Z,49.33
2017-11-08T18:06:20.088Z,47.40
2017-11-08T18:08:47.647Z,47.13
2017-11-08T18:11:15.189Z,53.65
2017-11-08T18:13:42.771Z,49.03
2017-11-08T18:16:10.338Z,53.38
2017-11-08T18:18:37.914Z,49.22
2017-11-08T18:21:05.481Z,51.25
2017-11-08T18:23:33.063Z,54.42
2017-11-08T18:26:00.673Z,53.72
2017-11-08T18:28:28.243Z,53.28
2017-11-08T18:30:55.864Z,53.80
2017-11-08T18:33:23.438Z,55.05
2017-11-08T18:35:51.017Z,54.78
2017-11-08T18:38:18.607Z,54.85
2017-11-08T18:40:46.235Z,54.45
2017-11-08T18:43:13.848Z,53.90
2017-11-08T18:45:41.423Z,54.22
2017-11-08T18:48:09.022Z,52.70
2017-11-08T18:50:36.621Z,51.80
2017-11-08T18:53:04.240Z,52.22
2017-11-08T18:55:31.864Z,52.35
2017-11-08T18:57:59.498Z,54.55
2017-11-08T19:00:27.123Z,51.45
2017-11-08T19:02:54.755Z,51.50
2017-11-08T19:05:22.331Z,54.90
2017-11-08T19:07:49.909Z,55.67
2017-11-08T19:10:17.498Z,55.20
2017-11-08T19:12:45.480Z,58.13
2017-11-08T19:15:13.055Z,55.70
2017-11-08T19:17:40.650Z,58.45
2017-11-08T19:20:08.642Z,59.28
2017-11-08T19:22:36.209Z,61.60
2017-11-08T19:25:03.822Z,63.47
2017-11-08T19:27:31.370Z,65.28
2017-11-08T19:29:58.973Z,62.50
2017-11-08T19:32:26.582Z,59.70
2017-11-08T19:34:54.580Z,63.58
2017-11-08T19:37:22.118Z,64.15
2017-11-08T19:39:49.700Z,68.53
2017-11-08T19:42:17.293Z,63.70
2017-11-08T19:44:44.904Z,66.43
2017-11-08T19:47:12.497Z,62.55
2017-11-08T19:49:40.092Z,60.35
2017-11-08T19:52:07.678Z,58.50
2017-11-08T19:54:35.274Z,62.05
2017-11-08T19:57:02.909Z,64.05
2017-11-08T19:59:30.538Z,62.88
2017-11-08T20:01:58.155Z,60.00
2017-11-08T20:04:25.780Z,52.58
2017-11-08T20:06:53.333Z,54.78
2017-11-08T20:09:20.922Z,51.92
2017-11-08T20:11:48.480Z,51.95
2017-11-08T20:14:16.064Z,52.70
2017-11-08T20:16:43.675Z,52.22
2017-11-08T20:19:11.361Z,55.33
2017-11-08T20:21:38.933Z,52.70
2017-11-08T20:24:06.553Z,54.20
2017-11-08T20:26:34.119Z,51.17
2017-11-08T20:29:01.730Z,52.50
2017-11-08T20:31:29.354Z,54.50
2017-11-08T20:33:56.977Z,55.08
2017-11-08T20:36:24.559Z,53.83
2017-11-08T20:38:52.175Z,54.42
2017-11-08T20:41:19.793Z,55.88
2017-11-08T20:43:47.359Z,54.50
2017-11-08T20:46:14.941Z,56.63
2017-11-08T20:48:42.580Z,52.33
2017-11-08T20:51:10.198Z,53.38
2017-11-08T20:53:37.764Z,55.33
2017-11-08T20:56:05.328Z,52.72
2017-11-08T20:58:32.911Z,51.63
2017-11-08T21:01:00.503Z,52.67
2017-11-08T21:03:28.075Z,54.83
2017-11-08T21:05:55.705Z,53.22
2017-11-08T21:08:23.295Z,53.50
2017-11-08T21:10:50.864Z,51.97
2017-11-08T21:13:18.454Z,51.55
2017-11-08T21:15:46.036Z,53.53
2017-11-08T21:18:13.648Z,54.35
2017-11-08T21:20:41.243Z,54.13
2017-11-08T21:23:08.831Z,52.33
2017-11-08T21:25:36.413Z,49.90
2017-11-08T21:28:03.993Z,51.80
2017-11-08T21:30:31.577Z,49.90
2017-11-08T21:32:59.174Z,53.83
2017-11-08T21:35:26.781Z,52.95
2017-11-08T21:37:54.404Z,51.30
2017-11-08T21:40:21.965Z,47.03
2017-11-08T21:42:49.586Z,51.65
2017-11-08T21:45:17.195Z,54.85
2017-11-08T21:47:44.769Z,51.42
2017-11-08T21:50:12.397Z,54.45
2017-11-08T21:52:39.985Z,57.08
2017-11-08T21:55:07.581Z,52.67
2017-11-08T21:57:35.204Z,50.40
2017-11-08T22:00:02.807Z,53.42
2017-11-08T22:02:30.456Z,54.42
2017-11-08T22:04:58.040Z,50.65
2017-11-08T22:07:25.641Z,50.85
2017-11-08T22:09:53.227Z,50.45
2017-11-08T22:12:20.810Z,48.90
2017-11-08T22:14:48.411Z,51.40
2017-11-08T22:17:16.409Z,51.08
2017-11-08T22:19:44.384Z,50.58
2017-11-08T22:22:12.359Z,51.50
2017-11-08T22:24:39.946Z,51.80
2017-11-08T22:27:07.515Z,49.53
2017-11-08T22:29:35.115Z,49.72
2017-11-08T22:32:02.722Z,51.92
2017-11-08T22:34:34.268Z,51.97
2017-11-08T22:37:01.892Z,52.50
2017-11-08T22:39:29.879Z,50.20
2017-11-08T22:41:57.457Z,52.00
2017-11-08T22:44:25.097Z,51.80
2017-11-08T22:46:52.677Z,55.03
2017-11-08T22:49:20.717Z,53.25
2017-11-08T22:51:48.337Z,56.00
2017-11-08T22:54:16.356Z,54.72
2017-11-08T22:56:43.968Z,53.08
2017-11-08T22:59:11.621Z,52.17
2017-11-08T23:01:39.210Z,54.13
2017-11-08T23:04:06.810Z,52.53
2017-11-08T23:06:34.474Z,52.47
2017-11-08T23:09:02.519Z,51.85
2017-11-08T23:11:30.125Z,51.95
2017-11-08T23:13:57.733Z,53.10
2017-11-08T23:16:25.325Z,52.22
2017-11-08T23:18:52.909Z,50.75
2017-11-08T23:21:20.529Z,53.08
2017-11-08T23:23:48.085Z,53.67
2017-11-08T23:26:15.721Z,50.38
2017-11-08T23:28:43.269Z,48.40
2017-11-08T23:31:10.916Z,51.78
2017-11-08T23:33:38.480Z,50.83
2017-11-08T23:36:06.253Z,51.50
2017-11-08T23:38:33.829Z,51.35
2017-11-08T23:41:01.403Z,54.08
2017-11-08T23:43:29.027Z,54.45
2017-11-08T23:45:56.644Z,55.92
2017-11-08T23:48:24.241Z,51.03
2017-11-08T23:50:51.822Z,53.35
2017-11-08T23:53:19.805Z,56.13
2017-11-08T23:55:47.363Z,53.75
2017-11-08T23:58:14.922Z,54.83
